sensor_id;sensor_type;location;lat;lon;timestamp;P1;durP1;ratioP1;P2;durP2;ratioP2
35558;SDS011;21661;50.794;-1.066;2022-10-20T00:01:53;25.85;;;12.88;;
35558;SDS011;21661;50.794;-1.066;2022-10-20T00:04:19;31.45;;;13.32;;
35558;SDS011;21661;50.794;-1.066;2022-10-20T00:06:45;31.35;;;14.90;;
35558;SDS011;21661;50.794;-1.066;2022-10-20T00:09:11;27.15;;;12.18;;
35558;SDS011;21661;50.794;-1.066;2022-10-20T00:11:37;27.27;;;12.32;;
35558;SDS011;21661;50.794;-1.066;2022-10-20T00:14:03;32.97;;;12.75;;
35558;SDS011;21661;50.794;-1.066;2022-10-20T00:16:29;25.38;;;13.60;;
35558;SDS011;21661;50.794;-1.066;2022-10-20T00:18:56;29.33;;;12.75;;
35558;SDS011;21661;50.794;-1.066;2022-10-20T00:21:24;31.90;;;13.65;;
35558;SDS011;21661;50.794;-1.066;2022-10-20T00:23:51;26.25;;;12.75;;
35558;SDS011;21661;50.794;-1.066;2022-10-20T00:26:21;32.92;;;13.07;;
35558;SDS011;21661;50.794;-1.066;2022-10-20T00:28:48;28.45;;;12.68;;
35558;SDS011;21661;50.794;-1.066;2022-10-20T00:31:14;27.30;;;13.68;;
35558;SDS011;21661;50.794;-1.066;2022-10-20T00:33:40;26.95;;;13.18;;
35558;SDS011;21661;50.794;-1.066;2022-10-20T00:36:07;30.25;;;13.82;;
35558;SDS011;21661;50.794;-1.066;2022-10-20T00:38:35;32.15;;;14.05;;
35558;SDS011;21661;50.794;-1.066;2022-10-20T00:41:01;38.95;;;13.43;;
35558;SDS011;21661;50.794;-1.066;2022-10-20T00:43:40;33.70;;;13.57;;
35558;SDS011;21661;50.794;-1.066;2022-10-20T00:46:06;34.53;;;13.20;;
35558;SDS011;21661;50.794;-1.066;2022-10-20T00:48:32;28.33;;;13.68;;
35558;SDS011;21661;50.794;-1.066;2022-10-20T00:50:59;25.58;;;12.43;;
35558;SDS011;21661;50.794;-1.066;2022-10-20T00:53:25;33.60;;;13.75;;
35558;SDS011;21661;50.794;-1.066;2022-10-20T00:55:53;35.53;;;14.75;;
35558;SDS011;21661;50.794;-1.066;2022-10-20T00:58:20;27.65;;;14.13;;
35558;SDS011;21661;50.794;-1.066;2022-10-20T01:00:47;32.25;;;13.40;;
35558;SDS011;21661;50.794;-1.066;2022-10-20T01:03:19;28.60;;;13.13;;
35558;SDS011;21661;50.794;-1.066;2022-10-20T01:05:52;27.75;;;12.75;;
35558;SDS011;21661;50.794;-1.066;2022-10-20T01:08:17;35.28;;;13.82;;
35558;SDS011;21661;50.794;-1.066;2022-10-20T01:10:58;27.92;;;12.20;;
35558;SDS011;21661;50.794;-1.066;2022-10-20T01:16:33;31.80;;;13.05;;
35558;SDS011;21661;50.794;-1.066;2022-10-20T01:19:24;29.02;;;11.93;;
35558;SDS011;21661;50.794;-1.066;2022-10-20T01:27:41;31.40;;;12.93;;
35558;SDS011;21661;50.794;-1.066;2022-10-20T01:30:20;37.10;;;12.15;;
35558;SDS011;21661;50.794;-1.066;2022-10-20T01:38:10;41.45;;;13.65;;
35558;SDS011;21661;50.794;-1.066;2022-10-20T01:40:51;35.72;;;13.00;;
35558;SDS011;21661;50.794;-1.066;2022-10-20T01:43:24;28.60;;;12.05;;
35558;SDS011;21661;50.794;-1.066;2022-10-20T01:45:53;27.38;;;11.68;;
35558;SDS011;21661;50.794;-1.066;2022-10-20T01:48:22;27.63;;;12.63;;
35558;SDS011;21661;50.794;-1.066;2022-10-20T01:50:51;29.60;;;11.52;;
35558;SDS011;21661;50.794;-1.066;2022-10-20T01:53:18;27.73;;;11.63;;
35558;SDS011;21661;50.794;-1.066;2022-10-20T01:55:44;33.50;;;12.65;;
35558;SDS011;21661;50.794;-1.066;2022-10-20T02:01:21;26.60;;;12.77;;
35558;SDS011;21661;50.794;-1.066;2022-10-20T02:03:56;31.33;;;12.25;;
35558;SDS011;21661;50.794;-1.066;2022-10-20T02:09:07;29.00;;;11.85;;
35558;SDS011;21661;50.794;-1.066;2022-10-20T02:11:48;31.45;;;12.93;;
35558;SDS011;21661;50.794;-1.066;2022-10-20T02:14:39;26.75;;;11.85;;
35558;SDS011;21661;50.794;-1.066;2022-10-20T02:17:08;24.50;;;12.68;;
35558;SDS011;21661;50.794;-1.066;2022-10-20T02:22:05;30.40;;;13.27;;
35558;SDS011;21661;50.794;-1.066;2022-10-20T02:24:36;30.55;;;12.32;;
35558;SDS011;21661;50.794;-1.066;2022-10-20T02:27:12;29.73;;;12.68;;
35558;SDS011;21661;50.794;-1.066;2022-10-20T02:29:47;32.13;;;13.30;;
35558;SDS011;21661;50.794;-1.066;2022-10-20T02:32:19;31.55;;;14.18;;
35558;SDS011;21661;50.794;-1.066;2022-10-20T02:34:46;31.88;;;13.35;;
35558;SDS011;21661;50.794;-1.066;2022-10-20T02:37:12;33.58;;;12.98;;
35558;SDS011;21661;50.794;-1.066;2022-10-20T02:39:38;29.38;;;11.77;;
35558;SDS011;21661;50.794;-1.066;2022-10-20T02:42:04;32.38;;;13.23;;
35558;SDS011;21661;50.794;-1.066;2022-10-20T02:44:29;29.63;;;13.38;;
35558;SDS011;21661;50.794;-1.066;2022-10-20T02:46:55;32.10;;;12.75;;
35558;SDS011;21661;50.794;-1.066;2022-10-20T02:49:20;39.10;;;12.70;;
35558;SDS011;21661;50.794;-1.066;2022-10-20T02:51:46;39.95;;;13.57;;
35558;SDS011;21661;50.794;-1.066;2022-10-20T02:54:12;25.73;;;12.90;;
35558;SDS011;21661;50.794;-1.066;2022-10-20T02:56:37;33.80;;;13.85;;
35558;SDS011;21661;50.794;-1.066;2022-10-20T02:59:03;36.20;;;13.93;;
35558;SDS011;21661;50.794;-1.066;2022-10-20T03:01:28;36.78;;;13.13;;
35558;SDS011;21661;50.794;-1.066;2022-10-20T03:03:54;29.27;;;12.57;;
35558;SDS011;21661;50.794;-1.066;2022-10-20T03:06:23;32.25;;;12.68;;
35558;SDS011;21661;50.794;-1.066;2022-10-20T03:08:49;29.65;;;12.57;;
35558;SDS011;21661;50.794;-1.066;2022-10-20T03:11:15;31.23;;;12.95;;
35558;SDS011;21661;50.794;-1.066;2022-10-20T03:13:40;32.67;;;13.45;;
35558;SDS011;21661;50.794;-1.066;2022-10-20T03:16:06;33.75;;;12.75;;
35558;SDS011;21661;50.794;-1.066;2022-10-20T03:18:32;29.48;;;13.02;;
35558;SDS011;21661;50.794;-1.066;2022-10-20T03:20:58;39.08;;;13.38;;
35558;SDS011;21661;50.794;-1.066;2022-10-20T03:23:23;27.88;;;13.30;;
35558;SDS011;21661;50.794;-1.066;2022-10-20T03:25:49;34.70;;;13.13;;
35558;SDS011;21661;50.794;-1.066;2022-10-20T03:28:14;32.83;;;12.40;;
35558;SDS011;21661;50.794;-1.066;2022-10-20T03:30:40;35.90;;;13.25;;
35558;SDS011;21661;50.794;-1.066;2022-10-20T03:33:06;45.13;;;12.02;;
35558;SDS011;21661;50.794;-1.066;2022-10-20T03:35:32;35.60;;;12.60;;
35558;SDS011;21661;50.794;-1.066;2022-10-20T03:37:57;28.80;;;12.23;;
35558;SDS011;21661;50.794;-1.066;2022-10-20T03:40:23;29.27;;;11.60;;
35558;SDS011;21661;50.794;-1.066;2022-10-20T03:42:48;33.33;;;12.13;;
35558;SDS011;21661;50.794;-1.066;2022-10-20T03:45:14;27.40;;;11.38;;
35558;SDS011;21661;50.794;-1.066;2022-10-20T03:47:40;30.77;;;12.07;;
35558;SDS011;21661;50.794;-1.066;2022-10-20T03:50:05;28.63;;;9.98;;
35558;SDS011;21661;50.794;-1.066;2022-10-20T03:52:31;30.25;;;11.27;;
35558;SDS011;21661;50.794;-1.066;2022-10-20T03:54:57;32.67;;;11.50;;
35558;SDS011;21661;50.794;-1.066;2022-10-20T03:57:22;31.35;;;12.73;;
35558;SDS011;21661;50.794;-1.066;2022-10-20T03:59:48;33.70;;;11.05;;
35558;SDS011;21661;50.794;-1.066;2022-10-20T04:02:22;26.92;;;11.20;;
35558;SDS011;21661;50.794;-1.066;2022-10-20T04:04:57;25.92;;;11.43;;
35558;SDS011;21661;50.794;-1.066;2022-10-20T04:07:23;30.50;;;12.57;;
35558;SDS011;21661;50.794;-1.066;2022-10-20T04:09:49;32.25;;;13.20;;
35558;SDS011;21661;50.794;-1.066;2022-10-20T04:12:14;30.55;;;13.13;;
35558;SDS011;21661;50.794;-1.066;2022-10-20T04:14:40;25.90;;;12.30;;
35558;SDS011;21661;50.794;-1.066;2022-10-20T04:17:06;30.17;;;13.63;;
35558;SDS011;21661;50.794;-1.066;2022-10-20T04:19:31;29.40;;;13.32;;
35558;SDS011;21661;50.794;-1.066;2022-10-20T04:21:57;24.95;;;12.65;;
35558;SDS011;21661;50.794;-1.066;2022-10-20T04:24:22;27.33;;;13.05;;
35558;SDS011;21661;50.794;-1.066;2022-10-20T04:26:48;31.80;;;13.43;;
35558;SDS011;21661;50.794;-1.066;2022-10-20T04:29:14;35.05;;;14.52;;
35558;SDS011;21661;50.794;-1.066;2022-10-20T04:31:39;28.95;;;13.82;;
35558;SDS011;21661;50.794;-1.066;2022-10-20T04:34:05;28.05;;;14.02;;
35558;SDS011;21661;50.794;-1.066;2022-10-20T04:36:30;27.73;;;12.18;;
35558;SDS011;21661;50.794;-1.066;2022-10-20T04:38:56;30.02;;;12.60;;
35558;SDS011;21661;50.794;-1.066;2022-10-20T04:41:21;32.20;;;13.30;;
35558;SDS011;21661;50.794;-1.066;2022-10-20T04:43:50;31.23;;;13.57;;
35558;SDS011;21661;50.794;-1.066;2022-10-20T04:46:17;27.35;;;11.95;;
35558;SDS011;21661;50.794;-1.066;2022-10-20T04:48:43;30.67;;;13.05;;
35558;SDS011;21661;50.794;-1.066;2022-10-20T04:51:09;34.58;;;12.80;;
35558;SDS011;21661;50.794;-1.066;2022-10-20T04:53:36;35.15;;;13.43;;
35558;SDS011;21661;50.794;-1.066;2022-10-20T04:56:02;33.13;;;11.82;;
35558;SDS011;21661;50.794;-1.066;2022-10-20T04:58:29;26.67;;;11.45;;
35558;SDS011;21661;50.794;-1.066;2022-10-20T05:00:59;29.02;;;11.50;;
35558;SDS011;21661;50.794;-1.066;2022-10-20T05:03:25;32.55;;;10.88;;
35558;SDS011;21661;50.794;-1.066;2022-10-20T05:05:51;32.40;;;10.50;;
35558;SDS011;21661;50.794;-1.066;2022-10-20T05:08:17;27.85;;;9.82;;
35558;SDS011;21661;50.794;-1.066;2022-10-20T05:10:42;32.50;;;11.38;;
35558;SDS011;21661;50.794;-1.066;2022-10-20T05:13:08;24.70;;;10.30;;
35558;SDS011;21661;50.794;-1.066;2022-10-20T05:15:34;29.08;;;9.43;;
35558;SDS011;21661;50.794;-1.066;2022-10-20T05:17:59;25.08;;;10.35;;
35558;SDS011;21661;50.794;-1.066;2022-10-20T05:20:25;28.42;;;10.63;;
35558;SDS011;21661;50.794;-1.066;2022-10-20T05:22:51;36.60;;;10.68;;
35558;SDS011;21661;50.794;-1.066;2022-10-20T05:25:16;26.98;;;9.55;;
35558;SDS011;21661;50.794;-1.066;2022-10-20T05:27:42;29.08;;;10.02;;
35558;SDS011;21661;50.794;-1.066;2022-10-20T05:30:07;22.50;;;9.60;;
35558;SDS011;21661;50.794;-1.066;2022-10-20T05:32:33;25.98;;;8.85;;
35558;SDS011;21661;50.794;-1.066;2022-10-20T05:34:59;38.03;;;10.02;;
35558;SDS011;21661;50.794;-1.066;2022-10-20T05:37:25;25.50;;;9.05;;
35558;SDS011;21661;50.794;-1.066;2022-10-20T05:39:50;29.38;;;8.40;;
35558;SDS011;21661;50.794;-1.066;2022-10-20T05:42:16;31.33;;;9.68;;
35558;SDS011;21661;50.794;-1.066;2022-10-20T05:44:41;30.33;;;8.68;;
35558;SDS011;21661;50.794;-1.066;2022-10-20T05:47:08;31.77;;;8.63;;
35558;SDS011;21661;50.794;-1.066;2022-10-20T05:49:37;33.33;;;9.37;;
35558;SDS011;21661;50.794;-1.066;2022-10-20T05:52:03;28.52;;;8.50;;
35558;SDS011;21661;50.794;-1.066;2022-10-20T05:54:28;38.28;;;9.00;;
35558;SDS011;21661;50.794;-1.066;2022-10-20T05:56:54;25.48;;;7.93;;
35558;SDS011;21661;50.794;-1.066;2022-10-20T05:59:20;27.88;;;9.60;;
35558;SDS011;21661;50.794;-1.066;2022-10-20T06:01:45;30.65;;;8.60;;
35558;SDS011;21661;50.794;-1.066;2022-10-20T06:04:15;28.65;;;8.95;;
35558;SDS011;21661;50.794;-1.066;2022-10-20T06:06:42;24.33;;;7.00;;
35558;SDS011;21661;50.794;-1.066;2022-10-20T06:09:08;25.30;;;7.93;;
35558;SDS011;21661;50.794;-1.066;2022-10-20T06:11:35;24.52;;;6.90;;
35558;SDS011;21661;50.794;-1.066;2022-10-20T06:14:00;26.13;;;6.72;;
35558;SDS011;21661;50.794;-1.066;2022-10-20T06:16:26;22.42;;;7.18;;
35558;SDS011;21661;50.794;-1.066;2022-10-20T06:18:53;26.23;;;7.07;;
35558;SDS011;21661;50.794;-1.066;2022-10-20T06:21:23;24.25;;;6.88;;
35558;SDS011;21661;50.794;-1.066;2022-10-20T06:23:51;31.80;;;8.90;;
35558;SDS011;21661;50.794;-1.066;2022-10-20T06:26:18;24.05;;;7.28;;
35558;SDS011;21661;50.794;-1.066;2022-10-20T06:28:47;31.23;;;6.70;;
35558;SDS011;21661;50.794;-1.066;2022-10-20T06:31:19;25.10;;;6.20;;
35558;SDS011;21661;50.794;-1.066;2022-10-20T06:33:53;25.02;;;4.88;;
35558;SDS011;21661;50.794;-1.066;2022-10-20T06:36:19;22.35;;;5.38;;
35558;SDS011;21661;50.794;-1.066;2022-10-20T06:38:46;26.38;;;6.18;;
35558;SDS011;21661;50.794;-1.066;2022-10-20T06:41:13;25.70;;;5.72;;
35558;SDS011;21661;50.794;-1.066;2022-10-20T06:43:40;20.35;;;4.68;;
35558;SDS011;21661;50.794;-1.066;2022-10-20T06:46:07;22.90;;;4.90;;
35558;SDS011;21661;50.794;-1.066;2022-10-20T06:48:36;27.23;;;5.18;;
35558;SDS011;21661;50.794;-1.066;2022-10-20T06:51:03;26.27;;;5.07;;
35558;SDS011;21661;50.794;-1.066;2022-10-20T06:53:30;24.48;;;5.47;;
35558;SDS011;21661;50.794;-1.066;2022-10-20T06:56:01;29.15;;;5.75;;
35558;SDS011;21661;50.794;-1.066;2022-10-20T06:58:30;35.92;;;5.32;;
35558;SDS011;21661;50.794;-1.066;2022-10-20T07:01:00;27.42;;;4.53;;
35558;SDS011;21661;50.794;-1.066;2022-10-20T07:03:31;26.67;;;4.80;;
35558;SDS011;21661;50.794;-1.066;2022-10-20T07:05:57;25.85;;;5.22;;
35558;SDS011;21661;50.794;-1.066;2022-10-20T07:08:23;20.83;;;5.05;;
35558;SDS011;21661;50.794;-1.066;2022-10-20T07:10:59;19.85;;;3.88;;
35558;SDS011;21661;50.794;-1.066;2022-10-20T07:13:32;20.48;;;4.35;;
35558;SDS011;21661;50.794;-1.066;2022-10-20T07:16:00;19.38;;;4.60;;
35558;SDS011;21661;50.794;-1.066;2022-10-20T07:18:26;18.83;;;4.25;;
35558;SDS011;21661;50.794;-1.066;2022-10-20T07:20:57;26.30;;;5.20;;
35558;SDS011;21661;50.794;-1.066;2022-10-20T07:23:24;23.07;;;5.03;;
35558;SDS011;21661;50.794;-1.066;2022-10-20T07:25:51;29.55;;;5.28;;
35558;SDS011;21661;50.794;-1.066;2022-10-20T07:28:17;20.35;;;5.32;;
35558;SDS011;21661;50.794;-1.066;2022-10-20T07:30:45;20.85;;;4.57;;
35558;SDS011;21661;50.794;-1.066;2022-10-20T07:33:11;23.77;;;4.95;;
35558;SDS011;21661;50.794;-1.066;2022-10-20T07:35:37;25.70;;;6.13;;
35558;SDS011;21661;50.794;-1.066;2022-10-20T07:38:02;30.20;;;6.47;;
35558;SDS011;21661;50.794;-1.066;2022-10-20T07:40:28;31.08;;;6.57;;
35558;SDS011;21661;50.794;-1.066;2022-10-20T07:42:54;25.40;;;6.18;;
35558;SDS011;21661;50.794;-1.066;2022-10-20T07:45:20;27.42;;;7.22;;
35558;SDS011;21661;50.794;-1.066;2022-10-20T07:47:45;23.33;;;6.90;;
35558;SDS011;21661;50.794;-1.066;2022-10-20T07:50:11;31.42;;;9.70;;
35558;SDS011;21661;50.794;-1.066;2022-10-20T07:52:37;27.83;;;8.95;;
35558;SDS011;21661;50.794;-1.066;2022-10-20T07:55:03;27.98;;;7.72;;
35558;SDS011;21661;50.794;-1.066;2022-10-20T07:57:29;27.38;;;7.18;;
35558;SDS011;21661;50.794;-1.066;2022-10-20T07:59:55;23.38;;;7.30;;
35558;SDS011;21661;50.794;-1.066;2022-10-20T08:02:20;23.23;;;6.60;;
35558;SDS011;21661;50.794;-1.066;2022-10-20T08:04:47;28.80;;;7.53;;
35558;SDS011;21661;50.794;-1.066;2022-10-20T08:07:13;19.15;;;6.13;;
35558;SDS011;21661;50.794;-1.066;2022-10-20T08:09:39;25.52;;;5.93;;
35558;SDS011;21661;50.794;-1.066;2022-10-20T08:12:05;18.35;;;5.50;;
35558;SDS011;21661;50.794;-1.066;2022-10-20T08:14:31;23.75;;;6.05;;
35558;SDS011;21661;50.794;-1.066;2022-10-20T08:16:59;18.35;;;5.88;;
35558;SDS011;21661;50.794;-1.066;2022-10-20T08:19:26;25.77;;;6.28;;
35558;SDS011;21661;50.794;-1.066;2022-10-20T08:21:52;24.90;;;6.35;;
35558;SDS011;21661;50.794;-1.066;2022-10-20T08:24:17;20.45;;;5.28;;
35558;SDS011;21661;50.794;-1.066;2022-10-20T08:26:43;23.42;;;5.57;;
35558;SDS011;21661;50.794;-1.066;2022-10-20T08:29:09;25.88;;;6.30;;
35558;SDS011;21661;50.794;-1.066;2022-10-20T08:31:36;19.88;;;6.07;;
35558;SDS011;21661;50.794;-1.066;2022-10-20T08:34:02;21.85;;;5.90;;
35558;SDS011;21661;50.794;-1.066;2022-10-20T08:36:28;26.02;;;6.63;;
35558;SDS011;21661;50.794;-1.066;2022-10-20T08:38:54;22.13;;;6.18;;
35558;SDS011;21661;50.794;-1.066;2022-10-20T08:41:39;22.80;;;6.63;;
35558;SDS011;21661;50.794;-1.066;2022-10-20T08:44:10;23.48;;;7.15;;
35558;SDS011;21661;50.794;-1.066;2022-10-20T08:46:43;21.95;;;6.47;;
35558;SDS011;21661;50.794;-1.066;2022-10-20T08:49:14;21.67;;;6.10;;
35558;SDS011;21661;50.794;-1.066;2022-10-20T08:51:47;25.15;;;6.72;;
35558;SDS011;21661;50.794;-1.066;2022-10-20T08:54:14;26.30;;;6.32;;
35558;SDS011;21661;50.794;-1.066;2022-10-20T08:56:40;22.85;;;6.80;;
35558;SDS011;21661;50.794;-1.066;2022-10-20T08:59:24;26.45;;;6.18;;
35558;SDS011;21661;50.794;-1.066;2022-10-20T09:01:56;28.98;;;6.55;;
35558;SDS011;21661;50.794;-1.066;2022-10-20T09:04:26;25.38;;;6.72;;
35558;SDS011;21661;50.794;-1.066;2022-10-20T09:06:59;20.83;;;5.95;;
35558;SDS011;21661;50.794;-1.066;2022-10-20T09:09:30;28.73;;;7.38;;
35558;SDS011;21661;50.794;-1.066;2022-10-20T09:12:02;27.35;;;6.70;;
35558;SDS011;21661;50.794;-1.066;2022-10-20T09:14:31;25.45;;;6.95;;
35558;SDS011;21661;50.794;-1.066;2022-10-20T09:17:00;24.52;;;8.40;;
35558;SDS011;21661;50.794;-1.066;2022-10-20T09:19:26;30.63;;;8.05;;
35558;SDS011;21661;50.794;-1.066;2022-10-20T09:21:53;22.80;;;6.80;;
35558;SDS011;21661;50.794;-1.066;2022-10-20T09:24:28;26.20;;;6.88;;
35558;SDS011;21661;50.794;-1.066;2022-10-20T09:26:55;27.80;;;7.90;;
35558;SDS011;21661;50.794;-1.066;2022-10-20T09:29:39;47.35;;;9.02;;
35558;SDS011;21661;50.794;-1.066;2022-10-20T09:32:15;22.35;;;5.05;;
35558;SDS011;21661;50.794;-1.066;2022-10-20T09:35:10;26.40;;;5.35;;
35558;SDS011;21661;50.794;-1.066;2022-10-20T09:37:55;23.65;;;4.93;;
35558;SDS011;21661;50.794;-1.066;2022-10-20T09:40:34;12.57;;;3.85;;
35558;SDS011;21661;50.794;-1.066;2022-10-20T09:43:01;15.05;;;3.92;;
35558;SDS011;21661;50.794;-1.066;2022-10-20T09:45:34;18.15;;;3.72;;
35558;SDS011;21661;50.794;-1.066;2022-10-20T09:48:23;18.70;;;4.10;;
35558;SDS011;21661;50.794;-1.066;2022-10-20T09:50:53;20.17;;;4.07;;
35558;SDS011;21661;50.794;-1.066;2022-10-20T09:53:23;14.45;;;3.20;;
35558;SDS011;21661;50.794;-1.066;2022-10-20T09:58:20;15.00;;;3.90;;
35558;SDS011;21661;50.794;-1.066;2022-10-20T10:01:32;14.85;;;4.07;;
35558;SDS011;21661;50.794;-1.066;2022-10-20T10:03:47;13.20;;;3.78;;
35558;SDS011;21661;50.794;-1.066;2022-10-20T10:09:03;17.23;;;5.07;;
35558;SDS011;21661;50.794;-1.066;2022-10-20T10:12:02;17.65;;;4.85;;
35558;SDS011;21661;50.794;-1.066;2022-10-20T10:14:34;13.95;;;4.05;;
35558;SDS011;21661;50.794;-1.066;2022-10-20T10:17:00;18.70;;;4.18;;
35558;SDS011;21661;50.794;-1.066;2022-10-20T10:19:27;16.80;;;4.97;;
35558;SDS011;21661;50.794;-1.066;2022-10-20T10:21:56;16.60;;;3.72;;
35558;SDS011;21661;50.794;-1.066;2022-10-20T10:24:29;11.98;;;3.03;;
35558;SDS011;21661;50.794;-1.066;2022-10-20T10:27:25;15.65;;;4.13;;
35558;SDS011;21661;50.794;-1.066;2022-10-20T10:29:56;16.20;;;4.13;;
35558;SDS011;21661;50.794;-1.066;2022-10-20T10:32:44;13.02;;;3.28;;
35558;SDS011;21661;50.794;-1.066;2022-10-20T10:35:14;16.93;;;4.13;;
35558;SDS011;21661;50.794;-1.066;2022-10-20T10:37:55;16.08;;;3.78;;
35558;SDS011;21661;50.794;-1.066;2022-10-20T10:40:31;16.98;;;4.25;;
35558;SDS011;21661;50.794;-1.066;2022-10-20T10:50:47;20.48;;;5.28;;
35558;SDS011;21661;50.794;-1.066;2022-10-20T11:12:19;15.55;;;4.32;;
35558;SDS011;21661;50.794;-1.066;2022-10-20T11:21:11;15.98;;;3.45;;
35558;SDS011;21661;50.794;-1.066;2022-10-20T11:26:32;14.65;;;3.53;;
35558;SDS011;21661;50.794;-1.066;2022-10-20T11:29:00;11.63;;;3.83;;
35558;SDS011;21661;50.794;-1.066;2022-10-20T11:31:44;12.70;;;3.85;;
35558;SDS011;21661;50.794;-1.066;2022-10-20T11:34:33;12.68;;;4.07;;
35558;SDS011;21661;50.794;-1.066;2022-10-20T11:37:15;8.32;;;3.55;;
35558;SDS011;21661;50.794;-1.066;2022-10-20T11:40:11;11.95;;;3.05;;
35558;SDS011;21661;50.794;-1.066;2022-10-20T11:45:38;13.43;;;3.00;;
35558;SDS011;21661;50.794;-1.066;2022-10-20T11:48:17;10.52;;;3.33;;
35558;SDS011;21661;50.794;-1.066;2022-10-20T11:50:53;11.77;;;2.97;;
35558;SDS011;21661;50.794;-1.066;2022-10-20T12:02:21;8.30;;;2.60;;
35558;SDS011;21661;50.794;-1.066;2022-10-20T12:07:57;8.18;;;1.95;;
35558;SDS011;21661;50.794;-1.066;2022-10-20T12:24:31;6.88;;;1.73;;
35558;SDS011;21661;50.794;-1.066;2022-10-20T12:37:34;9.00;;;1.70;;
35558;SDS011;21661;50.794;-1.066;2022-10-20T12:42:35;17.27;;;3.80;;
35558;SDS011;21661;50.794;-1.066;2022-10-20T12:47:51;7.45;;;1.98;;
35558;SDS011;21661;50.794;-1.066;2022-10-20T12:52:54;9.63;;;2.50;;
35558;SDS011;21661;50.794;-1.066;2022-10-20T12:55:35;10.80;;;3.25;;
35558;SDS011;21661;50.794;-1.066;2022-10-20T12:58:23;6.78;;;2.50;;
35558;SDS011;21661;50.794;-1.066;2022-10-20T13:06:56;11.13;;;2.75;;
35558;SDS011;21661;50.794;-1.066;2022-10-20T13:19:49;6.30;;;2.70;;
35558;SDS011;21661;50.794;-1.066;2022-10-20T13:23:03;7.80;;;2.10;;
35558;SDS011;21661;50.794;-1.066;2022-10-20T13:25:12;5.82;;;1.65;;
35558;SDS011;21661;50.794;-1.066;2022-10-20T13:28:03;6.90;;;1.50;;
35558;SDS011;21661;50.794;-1.066;2022-10-20T13:33:49;9.45;;;2.35;;
35558;SDS011;21661;50.794;-1.066;2022-10-20T13:50:00;4.35;;;1.00;;
35558;SDS011;21661;50.794;-1.066;2022-10-20T13:52:33;3.45;;;0.90;;
35558;SDS011;21661;50.794;-1.066;2022-10-20T13:57:31;2.35;;;0.90;;
35558;SDS011;21661;50.794;-1.066;2022-10-20T14:00:00;6.50;;;1.33;;
35558;SDS011;21661;50.794;-1.066;2022-10-20T14:02:30;4.25;;;1.05;;
35558;SDS011;21661;50.794;-1.066;2022-10-20T14:07:41;3.97;;;0.90;;
35558;SDS011;21661;50.794;-1.066;2022-10-20T14:12:55;3.22;;;0.98;;
35558;SDS011;21661;50.794;-1.066;2022-10-20T14:15:26;5.05;;;1.20;;
35558;SDS011;21661;50.794;-1.066;2022-10-20T14:17:58;6.85;;;1.45;;
35558;SDS011;21661;50.794;-1.066;2022-10-20T14:20:27;6.40;;;1.20;;
35558;SDS011;21661;50.794;-1.066;2022-10-20T14:22:54;2.97;;;0.70;;
35558;SDS011;21661;50.794;-1.066;2022-10-20T14:25:21;7.07;;;0.90;;
35558;SDS011;21661;50.794;-1.066;2022-10-20T14:27:47;9.05;;;1.73;;
35558;SDS011;21661;50.794;-1.066;2022-10-20T14:30:15;8.07;;;1.20;;
35558;SDS011;21661;50.794;-1.066;2022-10-20T14:32:42;5.38;;;1.10;;
35558;SDS011;21661;50.794;-1.066;2022-10-20T14:40:33;8.23;;;1.50;;
35558;SDS011;21661;50.794;-1.066;2022-10-20T14:43:04;4.53;;;1.10;;
35558;SDS011;21661;50.794;-1.066;2022-10-20T14:45:31;6.18;;;1.25;;
35558;SDS011;21661;50.794;-1.066;2022-10-20T14:47:58;4.80;;;1.02;;
35558;SDS011;21661;50.794;-1.066;2022-10-20T14:55:49;5.88;;;1.40;;
35558;SDS011;21661;50.794;-1.066;2022-10-20T15:01:13;6.78;;;1.17;;
35558;SDS011;21661;50.794;-1.066;2022-10-20T15:03:42;4.53;;;0.90;;
35558;SDS011;21661;50.794;-1.066;2022-10-20T15:06:09;5.30;;;1.15;;
35558;SDS011;21661;50.794;-1.066;2022-10-20T15:08:38;5.70;;;1.25;;
35558;SDS011;21661;50.794;-1.066;2022-10-20T15:11:18;7.15;;;1.42;;
35558;SDS011;21661;50.794;-1.066;2022-10-20T15:13:53;7.03;;;1.65;;
35558;SDS011;21661;50.794;-1.066;2022-10-20T15:16:33;4.50;;;1.00;;
35558;SDS011;21661;50.794;-1.066;2022-10-20T15:21:49;4.85;;;1.40;;
35558;SDS011;21661;50.794;-1.066;2022-10-20T15:24:35;9.13;;;1.42;;
35558;SDS011;21661;50.794;-1.066;2022-10-20T15:27:02;4.53;;;1.38;;
35558;SDS011;21661;50.794;-1.066;2022-10-20T15:29:28;8.20;;;1.83;;
35558;SDS011;21661;50.794;-1.066;2022-10-20T15:31:54;7.20;;;1.45;;
35558;SDS011;21661;50.794;-1.066;2022-10-20T15:34:20;6.82;;;2.20;;
35558;SDS011;21661;50.794;-1.066;2022-10-20T15:36:46;5.78;;;1.55;;
35558;SDS011;21661;50.794;-1.066;2022-10-20T15:39:11;9.98;;;2.20;;
35558;SDS011;21661;50.794;-1.066;2022-10-20T15:41:37;7.28;;;1.55;;
35558;SDS011;21661;50.794;-1.066;2022-10-20T15:44:10;11.57;;;1.92;;
35558;SDS011;21661;50.794;-1.066;2022-10-20T15:46:39;8.32;;;1.52;;
35558;SDS011;21661;50.794;-1.066;2022-10-20T15:49:05;8.88;;;1.98;;
35558;SDS011;21661;50.794;-1.066;2022-10-20T15:51:32;8.70;;;2.08;;
35558;SDS011;21661;50.794;-1.066;2022-10-20T15:53:59;4.90;;;1.20;;
35558;SDS011;21661;50.794;-1.066;2022-10-20T15:56:26;8.10;;;1.10;;
35558;SDS011;21661;50.794;-1.066;2022-10-20T15:58:51;6.85;;;1.40;;
35558;SDS011;21661;50.794;-1.066;2022-10-20T16:01:17;4.95;;;1.10;;
35558;SDS011;21661;50.794;-1.066;2022-10-20T16:03:44;9.07;;;2.60;;
35558;SDS011;21661;50.794;-1.066;2022-10-20T16:06:12;3.58;;;1.10;;
35558;SDS011;21661;50.794;-1.066;2022-10-20T16:08:39;6.10;;;1.50;;
35558;SDS011;21661;50.794;-1.066;2022-10-20T16:11:06;6.30;;;1.23;;
35558;SDS011;21661;50.794;-1.066;2022-10-20T16:13:33;7.78;;;1.52;;
35558;SDS011;21661;50.794;-1.066;2022-10-20T16:15:59;8.00;;;1.40;;
35558;SDS011;21661;50.794;-1.066;2022-10-20T16:18:26;3.95;;;1.10;;
35558;SDS011;21661;50.794;-1.066;2022-10-20T16:20:52;5.05;;;1.10;;
35558;SDS011;21661;50.794;-1.066;2022-10-20T16:23:17;5.30;;;1.15;;
35558;SDS011;21661;50.794;-1.066;2022-10-20T16:25:43;7.15;;;1.13;;
35558;SDS011;21661;50.794;-1.066;2022-10-20T16:28:09;6.32;;;1.35;;
35558;SDS011;21661;50.794;-1.066;2022-10-20T16:30:34;3.47;;;1.00;;
35558;SDS011;21661;50.794;-1.066;2022-10-20T16:33:01;4.38;;;1.17;;
35558;SDS011;21661;50.794;-1.066;2022-10-20T16:35:26;9.30;;;1.98;;
35558;SDS011;21661;50.794;-1.066;2022-10-20T16:37:52;9.60;;;2.17;;
35558;SDS011;21661;50.794;-1.066;2022-10-20T16:40:18;8.25;;;1.88;;
35558;SDS011;21661;50.794;-1.066;2022-10-20T16:42:43;6.85;;;1.73;;
35558;SDS011;21661;50.794;-1.066;2022-10-20T16:45:09;8.32;;;2.13;;
35558;SDS011;21661;50.794;-1.066;2022-10-20T16:47:35;5.28;;;1.60;;
35558;SDS011;21661;50.794;-1.066;2022-10-20T16:50:01;9.40;;;2.72;;
35558;SDS011;21661;50.794;-1.066;2022-10-20T16:52:27;10.73;;;1.70;;
35558;SDS011;21661;50.794;-1.066;2022-10-20T16:54:53;7.80;;;1.52;;
35558;SDS011;21661;50.794;-1.066;2022-10-20T16:57:18;9.88;;;2.30;;
35558;SDS011;21661;50.794;-1.066;2022-10-20T16:59:44;9.85;;;2.10;;
35558;SDS011;21661;50.794;-1.066;2022-10-20T17:02:14;7.03;;;1.73;;
35558;SDS011;21661;50.794;-1.066;2022-10-20T17:04:41;10.13;;;2.95;;
35558;SDS011;21661;50.794;-1.066;2022-10-20T17:07:08;8.40;;;1.83;;
35558;SDS011;21661;50.794;-1.066;2022-10-20T17:09:34;6.32;;;2.13;;
35558;SDS011;21661;50.794;-1.066;2022-10-20T17:12:00;8.70;;;2.60;;
35558;SDS011;21661;50.794;-1.066;2022-10-20T17:14:25;8.85;;;1.85;;
35558;SDS011;21661;50.794;-1.066;2022-10-20T17:16:51;8.30;;;2.00;;
35558;SDS011;21661;50.794;-1.066;2022-10-20T17:19:17;7.88;;;2.58;;
35558;SDS011;21661;50.794;-1.066;2022-10-20T17:21:42;11.30;;;3.28;;